Time;durP1;ratioP1;P1;durP2;ratioP2;P2;SDS_P1;SDS_P2;PMS_P1;PMS_P2;Temp;Humidity;BMP_temperature;BMP_pressure;BME280_temperature;BME280_humidity;BME280_pressure;Samples;Min_cycle;Max_cycle;Signal;HPM_P1;HPM_P2
2023/08/30 00:00:22;;;;;;;21.15;13.20;;;19.60;99.90;;;;;;5032418;28;20509;-85
2023/08/30 00:02:48;;;;;;;21.65;13.00;;;19.70;99.90;;;;;;5030553;28;20063;-78
2023/08/30 00:05:14;;;;;;;17.88;12.15;;;19.70;99.90;;;;;;5030679;28;20053;-85
2023/08/30 00:07:40;;;;;;;19.65;13.10;;;19.70;99.90;;;;;;5030332;28;20473;-84
2023/08/30 00:10:07;;;;;;;19.42;12.57;;;19.50;99.90;;;;;;5031056;28;20032;-83
2023/08/30 00:12:34;;;;;;;21.02;12.48;;;19.40;99.90;;;;;;5031008;28;20036;-85
2023/08/30 00:14:59;;;;;;;26.15;15.15;;;19.50;99.90;;;;;;5030437;28;20040;-79
2023/08/30 00:17:25;;;;;;;24.48;14.55;;;19.40;99.90;;;;;;5030324;28;20021;-86
2023/08/30 00:19:52;;;;;;;22.85;15.27;;;19.30;99.90;;;;;;5030065;28;20025;-78
2023/08/30 00:22:18;;;;;;;27.25;15.60;;;19.20;99.90;;;;;;5036467;28;20021;-82
2023/08/30 00:24:45;;;;;;;21.38;15.02;;;19.20;99.90;;;;;;5034595;28;20370;-81
2023/08/30 00:27:12;;;;;;;29.90;15.27;;;19.10;99.90;;;;;;5034530;28;20029;-80
2023/08/30 00:29:38;;;;;;;22.02;15.90;;;19.10;99.90;;;;;;5035001;28;20385;-85
2023/08/30 00:32:04;;;;;;;22.50;15.80;;;19.10;99.90;;;;;;5034068;28;20025;-78
2023/08/30 00:34:29;;;;;;;24.85;15.13;;;19.10;99.90;;;;;;5034031;28;20026;-79
2023/08/30 00:36:55;;;;;;;21.90;14.77;;;19.00;99.90;;;;;;5017794;28;20037;-78
2023/08/30 00:39:21;;;;;;;24.98;15.40;;;19.00;99.90;;;;;;5016792;28;20035;-82
2023/08/30 00:41:48;;;;;;;23.63;15.35;;;19.00;99.90;;;;;;5018484;28;20061;-85
2023/08/30 00:44:14;;;;;;;21.85;14.77;;;19.10;99.90;;;;;;5024569;28;20057;-77
2023/08/30 00:46:41;;;;;;;23.95;14.65;;;19.00;99.90;;;;;;5000636;28;20037;-79
2023/08/30 00:49:07;;;;;;;23.50;13.48;;;19.00;99.90;;;;;;4998284;28;20064;-85
2023/08/30 00:51:33;;;;;;;22.33;12.93;;;18.90;99.90;;;;;;5014484;28;20018;-78
2023/08/30 00:54:02;;;;;;;20.35;13.10;;;18.90;99.90;;;;;;4993944;28;20094;-85
2023/08/30 00:56:29;;;;;;;21.27;12.77;;;18.90;99.90;;;;;;4997926;28;20050;-79
2023/08/30 00:58:55;;;;;;;18.17;11.43;;;18.90;99.90;;;;;;5014188;28;20033;-84
2023/08/30 01:01:22;;;;;;;18.38;11.68;;;18.90;99.90;;;;;;5009009;28;20026;-84
2023/08/30 01:03:48;;;;;;;20.25;12.68;;;19.00;99.90;;;;;;5015567;28;20111;-84
2023/08/30 01:06:13;;;;;;;20.23;10.85;;;19.10;99.90;;;;;;5015591;28;20049;-81
2023/08/30 01:08:42;;;;;;;19.02;11.90;;;19.10;99.90;;;;;;5015877;28;20022;-81
2023/08/30 01:11:36;;;;;;;19.58;10.50;;;18.90;99.90;;;;;;5013261;28;20041;-86
2023/08/30 01:14:14;;;;;;;21.42;11.77;;;18.90;99.90;;;;;;5012495;28;20030;-85
2023/08/30 01:16:40;;;;;;;23.23;11.65;;;18.90;99.90;;;;;;4997146;28;20069;-79
2023/08/30 01:19:41;;;;;;;17.52;11.07;;;18.90;99.90;;;;;;5015167;28;20109;-85
2023/08/30 01:22:25;;;;;;;18.92;11.25;;;18.90;99.90;;;;;;5000589;28;20065;-85
2023/08/30 01:25:12;;;;;;;18.90;11.18;;;18.90;99.90;;;;;;4997647;28;20034;-85
2023/08/30 01:27:39;;;;;;;23.05;10.38;;;18.90;99.90;;;;;;4997671;28;20030;-79
2023/08/30 01:30:07;;;;;;;17.77;11.02;;;18.90;99.90;;;;;;5015472;28;20061;-85
2023/08/30 01:32:34;;;;;;;19.05;10.10;;;18.80;99.90;;;;;;5001399;28;20029;-80
2023/08/30 01:35:02;;;;;;;16.88;10.68;;;18.70;99.90;;;;;;5009414;28;20022;-84
2023/08/30 01:37:28;;;;;;;16.90;9.07;;;18.70;99.90;;;;;;5014581;28;20034;-79
2023/08/30 01:39:56;;;;;;;24.58;8.98;;;18.50;99.90;;;;;;4996777;28;20453;-83
2023/08/30 01:42:25;;;;;;;18.67;8.52;;;18.60;99.90;;;;;;5010287;28;20077;-80
2023/08/30 01:44:54;;;;;;;16.73;8.35;;;18.70;99.90;;;;;;5022885;28;20049;-86
2023/08/30 01:47:22;;;;;;;16.05;10.05;;;18.60;99.90;;;;;;5009869;28;20072;-85
2023/08/30 01:49:49;;;;;;;15.02;9.23;;;18.60;99.90;;;;;;5032950;28;20032;-86
2023/08/30 01:52:16;;;;;;;14.18;9.18;;;18.60;99.90;;;;;;5032853;28;20461;-84
2023/08/30 01:54:44;;;;;;;16.17;9.13;;;18.60;99.90;;;;;;5016072;28;20052;-81
2023/08/30 01:57:10;;;;;;;16.67;8.98;;;18.60;99.90;;;;;;5015316;28;20044;-85
2023/08/30 01:59:36;;;;;;;17.15;8.75;;;18.60;99.90;;;;;;5008709;28;20022;-79
2023/08/30 02:02:03;;;;;;;17.95;9.43;;;18.60;99.90;;;;;;5033184;28;20029;-84
2023/08/30 02:04:31;;;;;;;19.90;9.13;;;18.60;99.90;;;;;;5033332;28;20374;-85
2023/08/30 02:07:03;;;;;;;16.48;9.90;;;18.60;99.90;;;;;;5013629;28;20549;-79
2023/08/30 02:10:10;;;;;;;17.97;9.63;;;18.70;99.90;;;;;;5012599;28;20477;-85
2023/08/30 02:12:48;;;;;;;19.27;10.50;;;18.70;99.90;;;;;;4932114;29;20377;-79
2023/08/30 02:15:16;;;;;;;20.00;9.98;;;18.80;99.90;;;;;;4933313;29;20159;-85
2023/08/30 02:17:43;;;;;;;18.77;10.20;;;18.90;99.90;;;;;;4918348;29;20593;-85
2023/08/30 02:20:09;;;;;;;22.13;12.32;;;18.90;99.90;;;;;;4920208;29;20119;-80
2023/08/30 02:22:35;;;;;;;27.38;13.45;;;18.80;99.90;;;;;;4918616;29;20361;-85
2023/08/30 02:25:04;;;;;;;16.20;9.02;;;18.80;99.90;;;;;;4917947;29;20055;-84
2023/08/30 02:27:33;;;;;;;17.60;8.55;;;18.80;99.90;;;;;;4933090;29;20035;-87
2023/08/30 02:30:02;;;;;;;20.88;8.80;;;18.60;99.90;;;;;;4923725;29;20095;-84
2023/08/30 02:32:28;;;;;;;16.08;8.88;;;18.70;99.90;;;;;;4934507;29;20028;-85
2023/08/30 02:34:56;;;;;;;17.50;8.40;;;18.70;99.90;;;;;;4917860;29;20031;-80
2023/08/30 02:37:22;;;;;;;25.20;9.65;;;18.70;99.90;;;;;;4918308;29;20160;-82
2023/08/30 02:39:50;;;;;;;19.95;9.50;;;18.80;99.90;;;;;;4934003;29;20111;-85
2023/08/30 02:42:16;;;;;;;17.98;9.77;;;18.80;99.90;;;;;;4932229;29;20032;-86
2023/08/30 02:44:42;;;;;;;19.65;10.10;;;18.70;99.90;;;;;;4933430;29;20566;-80
2023/08/30 02:47:08;;;;;;;13.98;7.80;;;18.60;99.90;;;;;;4997656;28;20037;-79
2023/08/30 02:49:34;;;;;;;14.88;8.35;;;18.40;99.90;;;;;;5012594;28;20461;-86
2023/08/30 02:51:59;;;;;;;17.90;8.77;;;18.60;99.90;;;;;;5043850;28;20025;-84
2023/08/30 02:54:25;;;;;;;13.60;8.70;;;18.60;99.90;;;;;;5039724;28;20029;-86
2023/08/30 02:56:51;;;;;;;16.73;8.85;;;18.60;99.90;;;;;;5042791;28;20537;-85
2023/08/30 02:59:17;;;;;;;16.10;8.82;;;18.60;99.90;;;;;;5034636;28;20028;-85
2023/08/30 03:01:44;;;;;;;18.02;8.70;;;18.60;99.90;;;;;;5014964;28;20025;-84
2023/08/30 03:04:12;;;;;;;25.98;10.57;;;18.60;99.90;;;;;;5015064;28;20037;-84
2023/08/30 03:06:38;;;;;;;19.00;9.07;;;18.60;99.90;;;;;;5033260;28;20072;-86
2023/08/30 03:09:06;;;;;;;21.90;10.00;;;18.60;99.90;;;;;;5032976;28;20060;-84
2023/08/30 03:11:35;;;;;;;15.95;8.20;;;18.50;99.90;;;;;;5030833;28;20036;-85
2023/08/30 03:14:01;;;;;;;14.32;7.53;;;18.50;99.90;;;;;;5014369;28;20029;-86
2023/08/30 03:16:27;;;;;;;17.70;8.98;;;18.50;99.90;;;;;;5008967;28;20036;-85
2023/08/30 03:18:54;;;;;;;16.80;9.48;;;18.50;99.90;;;;;;5014546;28;20117;-82
2023/08/30 03:21:21;;;;;;;20.05;9.05;;;18.50;99.90;;;;;;5014953;28;20086;-85
2023/08/30 03:23:47;;;;;;;17.35;9.07;;;18.50;99.90;;;;;;5032567;28;20033;-83
2023/08/30 03:26:14;;;;;;;18.38;9.40;;;18.60;99.90;;;;;;5015943;28;20444;-82
2023/08/30 03:28:42;;;;;;;14.82;8.50;;;18.50;99.90;;;;;;5032583;28;20469;-81
2023/08/30 03:31:26;;;;;;;16.10;8.13;;;18.50;99.90;;;;;;5032890;28;20071;-82
2023/08/30 03:33:52;;;;;;;15.93;9.35;;;18.40;99.90;;;;;;5015358;28;20132;-83
2023/08/30 03:36:18;;;;;;;21.05;9.98;;;18.50;99.90;;;;;;5028858;28;20053;-82
2023/08/30 03:38:45;;;;;;;16.02;8.43;;;18.50;99.90;;;;;;5005679;28;20038;-83
2023/08/30 03:41:11;;;;;;;18.33;9.05;;;18.60;99.90;;;;;;5019280;28;20009;-82
2023/08/30 03:43:38;;;;;;;15.20;8.65;;;18.60;99.90;;;;;;5004460;28;20049;-79
2023/08/30 03:46:04;;;;;;;22.25;9.32;;;18.60;99.90;;;;;;4985212;28;20025;-79
2023/08/30 03:48:30;;;;;;;17.45;8.93;;;18.70;99.90;;;;;;5031649;28;20032;-80
2023/08/30 03:50:57;;;;;;;15.93;8.95;;;18.70;99.90;;;;;;5032018;28;20022;-82
2023/08/30 03:53:23;;;;;;;21.17;8.68;;;18.70;99.90;;;;;;5003100;28;20022;-79
2023/08/30 03:55:49;;;;;;;20.83;9.43;;;18.70;99.90;;;;;;5013751;28;20096;-80
2023/08/30 03:58:18;;;;;;;14.38;7.65;;;18.80;99.90;;;;;;5008213;28;20025;-78
2023/08/30 04:00:44;;;;;;;16.58;8.88;;;18.80;99.90;;;;;;4997422;28;20076;-78
2023/08/30 04:03:10;;;;;;;15.85;7.95;;;18.90;99.90;;;;;;4994174;28;20038;-84
2023/08/30 04:05:37;;;;;;;18.95;8.48;;;19.00;99.90;;;;;;4994763;28;20440;-79
2023/08/30 04:08:06;;;;;;;14.68;9.40;;;19.00;99.90;;;;;;5010532;28;20508;-84
2023/08/30 04:10:39;;;;;;;16.20;8.20;;;19.00;99.90;;;;;;4995152;28;20239;-80
2023/08/30 04:13:05;;;;;;;14.75;8.38;;;19.10;99.90;;;;;;5014831;28;20033;-80
2023/08/30 04:15:35;;;;;;;13.48;7.63;;;19.10;99.90;;;;;;5019884;28;20427;-84
2023/08/30 04:18:02;;;;;;;17.30;8.13;;;19.10;99.90;;;;;;5029144;28;20037;-84
2023/08/30 04:20:28;;;;;;;19.20;8.13;;;19.00;99.90;;;;;;5013919;28;20377;-85
2023/08/30 04:22:55;;;;;;;15.70;8.63;;;19.20;99.90;;;;;;5013793;28;20034;-83
2023/08/30 04:25:22;;;;;;;14.98;9.10;;;19.60;99.90;;;;;;5001467;28;20251;-82
2023/08/30 04:27:47;;;;;;;15.05;8.32;;;19.60;99.90;;;;;;5016184;28;20018;-80
2023/08/30 04:30:15;;;;;;;20.20;14.57;;;19.50;99.90;;;;;;4998463;28;20034;-83
2023/08/30 04:32:41;;;;;;;14.68;8.65;;;19.60;99.90;;;;;;5003621;28;20478;-87
2023/08/30 04:35:07;;;;;;;13.43;7.93;;;19.50;99.90;;;;;;5011803;28;20079;-87
2023/08/30 04:37:33;;;;;;;18.08;8.68;;;19.50;99.90;;;;;;4986727;28;20075;-79
2023/08/30 04:39:59;;;;;;;12.93;8.00;;;19.70;99.90;;;;;;4983654;28;20030;-85
2023/08/30 04:42:25;;;;;;;18.55;8.68;;;19.60;99.90;;;;;;5011652;28;20033;-81
2023/08/30 04:44:52;;;;;;;17.90;8.80;;;19.60;99.90;;;;;;5013596;28;20072;-79
2023/08/30 04:47:18;;;;;;;16.48;8.80;;;19.60;99.90;;;;;;5013589;28;20038;-87
2023/08/30 04:49:44;;;;;;;12.65;7.55;;;19.70;99.90;;;;;;5011241;28;20037;-80
2023/08/30 04:52:10;;;;;;;15.30;9.15;;;19.70;99.90;;;;;;5003552;28;20056;-80
2023/08/30 04:54:37;;;;;;;13.55;7.75;;;19.70;99.90;;;;;;5002560;28;20093;-80
2023/08/30 04:57:03;;;;;;;14.90;8.80;;;19.60;99.90;;;;;;5000470;28;20477;-80
2023/08/30 04:59:30;;;;;;;16.20;8.45;;;19.70;99.90;;;;;;5013373;28;20141;-80
2023/08/30 05:01:56;;;;;;;16.48;8.68;;;19.70;99.90;;;;;;5007216;28;20098;-79
2023/08/30 05:04:24;;;;;;;17.95;8.13;;;19.70;99.90;;;;;;5011045;28;20519;-86
2023/08/30 05:06:50;;;;;;;13.85;8.20;;;19.70;99.90;;;;;;5008504;28;20129;-79
2023/08/30 05:09:16;;;;;;;14.23;8.32;;;20.10;99.90;;;;;;5016477;28;20109;-86
2023/08/30 05:11:42;;;;;;;15.30;7.68;;;20.00;99.90;;;;;;5017219;28;20562;-80
2023/08/30 05:14:12;;;;;;;15.68;8.20;;;20.00;99.90;;;;;;5029211;28;20034;-79
2023/08/30 05:16:39;;;;;;;17.50;8.88;;;19.80;99.90;;;;;;4996508;28;20040;-80
2023/08/30 05:19:05;;;;;;;18.33;8.25;;;19.80;99.90;;;;;;5013631;28;20109;-84
2023/08/30 05:21:31;;;;;;;11.73;6.28;;;19.80;99.90;;;;;;5003426;28;20026;-87
2023/08/30 05:23:56;;;;;;;15.68;6.57;;;19.80;99.90;;;;;;5002087;28;20077;-85
2023/08/30 05:26:23;;;;;;;14.90;6.38;;;19.70;99.90;;;;;;5016782;28;20026;-82
2023/08/30 05:28:49;;;;;;;15.00;6.03;;;19.70;99.90;;;;;;5004013;28;20432;-80
2023/08/30 05:31:14;;;;;;;12.38;6.47;;;19.60;99.90;;;;;;5017067;28;20507;-86
2023/08/30 05:34:12;;;;;;;13.02;7.00;;;19.60;99.90;;;;;;4956476;28;20423;-79
2023/08/30 05:37:10;;;;;;;12.15;6.70;;;19.70;99.90;;;;;;4926867;29;20092;-78
2023/08/30 05:40:16;;;;;;;12.85;7.13;;;19.60;99.90;;;;;;4878855;29;20150;-86
2023/08/30 05:42:43;;;;;;;17.45;7.22;;;19.60;99.90;;;;;;4878243;29;20089;-86
2023/08/30 05:45:09;;;;;;;18.30;8.15;;;19.60;99.90;;;;;;4908029;29;20070;-87
2023/08/30 05:47:35;;;;;;;11.18;6.43;;;19.70;99.90;;;;;;4900120;29;20032;-86
2023/08/30 05:50:00;;;;;;;15.80;6.85;;;19.80;99.90;;;;;;4907847;29;20468;-80
2023/08/30 05:52:26;;;;;;;15.77;7.10;;;19.70;99.90;;;;;;4904914;29;20064;-85
2023/08/30 05:54:52;;;;;;;17.77;6.95;;;19.80;99.90;;;;;;4899956;29;20028;-80
2023/08/30 05:57:18;;;;;;;15.05;7.28;;;19.70;99.90;;;;;;4916048;29;20370;-87
2023/08/30 05:59:44;;;;;;;16.50;6.97;;;19.60;99.90;;;;;;4915617;29;20040;-80
2023/08/30 06:02:10;;;;;;;18.45;7.53;;;19.60;99.90;;;;;;4915989;29;20205;-83
2023/08/30 06:04:36;;;;;;;19.95;7.80;;;19.60;99.90;;;;;;4915534;28;20670;-87
2023/08/30 06:07:03;;;;;;;11.77;6.20;;;19.60;99.90;;;;;;4922700;29;20099;-87
2023/08/30 06:09:29;;;;;;;14.57;6.45;;;19.50;99.90;;;;;;4935482;28;20421;-81
2023/08/30 06:11:54;;;;;;;14.27;6.82;;;19.70;99.90;;;;;;4988582;28;20103;-78
2023/08/30 06:14:20;;;;;;;11.65;6.25;;;19.70;99.90;;;;;;5033948;28;20034;-83
2023/08/30 06:16:46;;;;;;;10.15;5.70;;;19.70;99.90;;;;;;5034098;28;20044;-87
2023/08/30 06:19:12;;;;;;;14.57;6.45;;;19.70;99.90;;;;;;5033305;28;20036;-83
2023/08/30 06:21:38;;;;;;;13.43;6.10;;;19.80;99.90;;;;;;5033795;28;20028;-80
2023/08/30 06:24:04;;;;;;;12.50;7.18;;;19.90;99.90;;;;;;5016694;28;20120;-79
2023/08/30 06:26:29;;;;;;;11.15;5.88;;;20.00;99.90;;;;;;5034587;28;20045;-82
2023/08/30 06:28:55;;;;;;;12.38;6.10;;;20.00;99.90;;;;;;5033953;28;20476;-87
2023/08/30 06:31:21;;;;;;;11.65;6.00;;;20.10;99.90;;;;;;5034407;28;20400;-84
2023/08/30 06:33:48;;;;;;;13.35;6.45;;;20.20;99.90;;;;;;5035785;28;20038;-81
2023/08/30 06:36:16;;;;;;;11.13;6.03;;;20.30;99.90;;;;;;5016972;28;20032;-83
2023/08/30 06:38:42;;;;;;;11.75;6.60;;;20.40;99.90;;;;;;5033550;28;20037;-80
2023/08/30 06:41:08;;;;;;;11.90;6.30;;;20.50;99.90;;;;;;5033651;28;20372;-87
2023/08/30 06:43:34;;;;;;;14.52;6.80;;;20.50;99.90;;;;;;5032872;28;20057;-80
2023/08/30 06:46:00;;;;;;;12.57;5.93;;;20.60;99.90;;;;;;5033988;28;20038;-87
2023/08/30 06:48:26;;;;;;;11.77;5.35;;;20.60;99.90;;;;;;5034707;28;20025;-87
2023/08/30 06:50:52;;;;;;;9.63;5.68;;;20.70;99.90;;;;;;5034111;28;20029;-79
2023/08/30 06:53:17;;;;;;;9.77;5.28;;;20.80;99.90;;;;;;5034251;28;20409;-87
2023/08/30 06:55:43;;;;;;;16.00;7.65;;;20.90;99.90;;;;;;5029782;28;20018;-80
2023/08/30 06:58:09;;;;;;;17.00;8.48;;;20.90;99.90;;;;;;5015901;28;20161;-87
2023/08/30 07:00:35;;;;;;;13.80;7.10;;;21.00;99.90;;;;;;5014688;28;20029;-87
2023/08/30 07:03:00;;;;;;;12.65;6.65;;;21.20;99.90;;;;;;5014031;28;20041;-87
2023/08/30 07:05:26;;;;;;;13.73;7.18;;;21.20;99.90;;;;;;5030320;28;20030;-87
2023/08/30 07:07:52;;;;;;;11.85;5.95;;;21.20;99.90;;;;;;5035125;28;20378;-80
2023/08/30 07:10:18;;;;;;;11.70;6.28;;;21.10;99.90;;;;;;5033851;28;20030;-79
2023/08/30 07:12:45;;;;;;;12.10;6.93;;;21.10;99.90;;;;;;5035840;28;20092;-80
2023/08/30 07:15:11;;;;;;;11.05;6.30;;;21.30;99.90;;;;;;5038281;28;20072;-80
2023/08/30 07:17:36;;;;;;;12.77;6.07;;;21.40;99.90;;;;;;5036271;28;20353;-88
2023/08/30 07:20:04;;;;;;;10.38;5.68;;;21.60;99.90;;;;;;5034803;28;20040;-77
2023/08/30 07:22:30;;;;;;;12.98;5.63;;;21.70;99.90;;;;;;5036019;28;20017;-85
2023/08/30 07:24:56;;;;;;;9.90;5.70;;;21.70;99.90;;;;;;5035903;28;20064;-80
2023/08/30 07:27:22;;;;;;;11.20;5.05;;;21.80;99.90;;;;;;5016735;28;20064;-78
2023/08/30 07:29:48;;;;;;;15.23;6.00;;;21.80;99.90;;;;;;5035919;28;20112;-77
2023/08/30 07:32:13;;;;;;;11.60;5.20;;;21.70;99.90;;;;;;5037375;28;20018;-82
2023/08/30 07:34:40;;;;;;;14.40;6.57;;;21.70;99.90;;;;;;5041175;28;20040;-87
2023/08/30 07:37:15;;;;;;;9.40;6.05;;;21.70;99.90;;;;;;5038985;28;20029;-78
2023/08/30 07:39:41;;;;;;;13.82;5.78;;;21.80;99.90;;;;;;5034529;28;20025;-88
2023/08/30 07:42:07;;;;;;;13.13;5.80;;;21.90;99.90;;;;;;5037262;28;20026;-78
2023/08/30 07:44:33;;;;;;;10.70;5.50;;;21.90;99.90;;;;;;5035338;28;20049;-83
2023/08/30 07:46:58;;;;;;;11.38;5.82;;;22.00;99.90;;;;;;5036964;28;20108;-79
2023/08/30 07:49:24;;;;;;;10.38;5.90;;;22.10;99.90;;;;;;5040121;28;20029;-86
2023/08/30 07:51:50;;;;;;;10.63;6.07;;;21.80;99.90;;;;;;5029367;28;20477;-79
2023/08/30 07:54:16;;;;;;;13.45;5.55;;;21.80;99.90;;;;;;5024417;28;20025;-80
2023/08/30 07:56:41;;;;;;;12.48;6.65;;;21.80;99.90;;;;;;5037549;28;20088;-82
2023/08/30 07:59:07;;;;;;;10.18;6.25;;;21.80;99.90;;;;;;5045042;28;20037;-82
2023/08/30 08:01:33;;;;;;;16.25;6.15;;;22.00;99.90;;;;;;5046531;28;20022;-83
2023/08/30 08:03:59;;;;;;;13.77;6.22;;;22.10;99.90;;;;;;5047650;28;20116;-79
2023/08/30 08:06:25;;;;;;;12.95;6.07;;;22.20;99.90;;;;;;5031698;28;20026;-78
2023/08/30 08:08:50;;;;;;;11.95;6.63;;;22.30;99.90;;;;;;5042477;28;20025;-79
2023/08/30 08:11:16;;;;;;;13.20;6.25;;;22.30;99.90;;;;;;5046974;28;20440;-79
2023/08/30 08:13:42;;;;;;;12.77;6.68;;;22.50;99.90;;;;;;5041909;28;20026;-84
2023/08/30 08:16:08;;;;;;;9.48;6.45;;;22.40;99.90;;;;;;5036241;28;20044;-78
2023/08/30 08:18:34;;;;;;;14.63;6.18;;;22.40;99.90;;;;;;5034959;28;20112;-79
2023/08/30 08:20:59;;;;;;;10.18;5.30;;;22.50;99.90;;;;;;5032406;28;20026;-81
2023/08/30 08:23:25;;;;;;;11.10;4.68;;;22.50;99.90;;;;;;5032816;28;20037;-78
2023/08/30 08:25:57;;;;;;;14.23;5.93;;;22.70;99.90;;;;;;5032684;28;20067;-78
2023/08/30 08:28:23;;;;;;;11.63;5.57;;;22.60;99.90;;;;;;5032442;28;20104;-78
2023/08/30 08:30:51;;;;;;;18.67;6.20;;;22.70;99.90;;;;;;5031802;28;20152;-81
2023/08/30 08:33:22;;;;;;;14.05;5.68;;;22.60;99.90;;;;;;5032247;28;20033;-86
2023/08/30 08:35:49;;;;;;;10.50;5.72;;;22.60;99.90;;;;;;5031413;28;20030;-84
2023/08/30 08:38:15;;;;;;;10.52;6.70;;;22.40;99.90;;;;;;5031660;28;20029;-78
2023/08/30 08:40:41;;;;;;;10.63;6.32;;;22.50;99.90;;;;;;5032413;28;20358;-84
2023/08/30 08:43:08;;;;;;;11.77;6.47;;;22.60;99.90;;;;;;5035870;28;20464;-86
2023/08/30 08:45:37;;;;;;;12.45;6.90;;;22.40;99.90;;;;;;5036349;28;20056;-79
2023/08/30 08:48:05;;;;;;;12.10;6.15;;;22.60;99.90;;;;;;5036068;28;20103;-82
2023/08/30 08:50:32;;;;;;;11.32;6.60;;;23.00;99.90;;;;;;5018002;28;20035;-80
2023/08/30 08:52:59;;;;;;;14.35;6.72;;;23.30;99.90;;;;;;5035476;28;20100;-78
2023/08/30 08:55:26;;;;;;;17.52;6.93;;;23.30;99.90;;;;;;5035382;28;20030;-78
2023/08/30 08:57:54;;;;;;;17.92;6.72;;;23.30;99.90;;;;;;5035246;28;20116;-79
2023/08/30 09:00:20;;;;;;;13.82;6.82;;;23.70;99.90;;;;;;5034695;28;20022;-80
2023/08/30 09:02:46;;;;;;;14.43;6.43;;;23.90;99.90;;;;;;5035032;28;20026;-82
2023/08/30 09:05:12;;;;;;;19.38;6.70;;;24.00;99.90;;;;;;5034690;28;20037;-84
2023/08/30 09:07:39;;;;;;;10.63;6.43;;;24.10;99.90;;;;;;5035145;28;20425;-79
2023/08/30 09:10:05;;;;;;;16.95;6.40;;;24.00;99.90;;;;;;5034531;28;20068;-83
2023/08/30 09:12:35;;;;;;;11.63;6.55;;;24.20;99.90;;;;;;5034902;28;20104;-79
2023/08/30 09:15:01;;;;;;;17.52;6.57;;;24.20;99.90;;;;;;5034095;28;20071;-81
2023/08/30 09:17:37;;;;;;;20.15;7.03;;;24.60;99.90;;;;;;5035057;28;20029;-83
2023/08/30 09:20:13;;;;;;;22.45;7.68;;;24.70;99.90;;;;;;5034821;28;20461;-82
2023/08/30 09:22:43;;;;;;;11.13;6.38;;;25.00;99.90;;;;;;5034434;28;20033;-83
2023/08/30 09:25:11;;;;;;;11.13;6.32;;;25.50;99.90;;;;;;5035020;28;20389;-83
2023/08/30 09:27:41;;;;;;;9.93;4.65;;;25.80;99.90;;;;;;5034221;28;20018;-84
2023/08/30 09:30:10;;;;;;;6.93;3.03;;;25.70;99.90;;;;;;5034641;28;20029;-82
2023/08/30 09:32:40;;;;;;;8.43;3.90;;;25.80;93.10;;;;;;5034206;28;20021;-83
2023/08/30 09:35:07;;;;;;;10.90;2.97;;;25.90;93.90;;;;;;5034404;28;20035;-81
2023/08/30 09:37:33;;;;;;;6.60;3.25;;;25.70;93.90;;;;;;5034496;28;20091;-83
2023/08/30 09:39:58;;;;;;;7.65;3.50;;;25.80;95.20;;;;;;5034694;28;20112;-81
2023/08/30 09:42:24;;;;;;;10.60;4.93;;;25.80;96.30;;;;;;5034521;28;20101;-78
2023/08/30 09:44:50;;;;;;;7.70;4.22;;;25.90;96.90;;;;;;5034076;28;20050;-80
2023/08/30 09:47:16;;;;;;;8.55;3.95;;;26.00;95.80;;;;;;5033961;28;20017;-81
2023/08/30 09:49:46;;;;;;;7.15;3.50;;;26.00;95.40;;;;;;5033878;28;20029;-85
2023/08/30 09:52:16;;;;;;;10.45;4.80;;;26.10;96.30;;;;;;5033398;28;20025;-81
2023/08/30 09:54:43;;;;;;;7.80;4.13;;;26.20;95.50;;;;;;5034128;28;20061;-81
2023/08/30 09:57:10;;;;;;;10.23;5.00;;;26.10;97.10;;;;;;5034059;28;20014;-81
2023/08/30 09:59:37;;;;;;;7.68;4.43;;;26.10;96.60;;;;;;5034177;28;20037;-85
2023/08/30 10:02:05;;;;;;;9.27;5.00;;;26.30;97.00;;;;;;5034563;28;20041;-84
2023/08/30 10:04:32;;;;;;;9.93;5.93;;;26.20;95.90;;;;;;5033934;28;20041;-83
2023/08/30 10:06:58;;;;;;;12.98;4.90;;;26.10;95.10;;;;;;5033675;28;20022;-78
2023/08/30 10:09:25;;;;;;;9.82;4.97;;;26.20;96.40;;;;;;5036692;28;20029;-86
2023/08/30 10:11:51;;;;;;;6.30;4.20;;;26.30;95.60;;;;;;5034352;28;20037;-80
2023/08/30 10:14:17;;;;;;;9.80;4.22;;;26.40;96.40;;;;;;5034640;28;20112;-80
2023/08/30 10:16:47;;;;;;;10.52;5.03;;;26.40;95.00;;;;;;5034142;28;20048;-80
2023/08/30 10:19:16;;;;;;;10.30;4.47;;;26.60;95.20;;;;;;5015446;28;20033;-85
2023/08/30 10:21:45;;;;;;;7.32;4.28;;;26.30;95.00;;;;;;5038103;28;20215;-81
2023/08/30 10:24:16;;;;;;;9.88;4.07;;;26.40;95.40;;;;;;5035462;28;20548;-80
2023/08/30 10:26:44;;;;;;;8.63;4.60;;;26.40;96.00;;;;;;5036492;28;20029;-80
2023/08/30 10:29:12;;;;;;;12.77;4.28;;;26.50;93.90;;;;;;5037766;28;20037;-83
2023/08/30 10:31:39;;;;;;;8.55;4.47;;;26.50;94.00;;;;;;5033374;28;20062;-79
2023/08/30 10:34:16;;;;;;;6.03;3.25;;;26.70;93.50;;;;;;5030825;28;20051;-88
2023/08/30 10:36:44;;;;;;;9.88;3.85;;;26.60;93.20;;;;;;5034672;28;20384;-79
2023/08/30 10:39:13;;;;;;;7.55;4.05;;;26.50;93.50;;;;;;5034308;28;20024;-83
2023/08/30 10:41:58;;;;;;;6.93;3.25;;;26.70;93.50;;;;;;5021723;28;20474;-79
2023/08/30 10:44:24;;;;;;;4.72;2.90;;;26.60;91.30;;;;;;5005846;28;20108;-81
2023/08/30 10:46:54;;;;;;;5.38;2.80;;;26.70;90.40;;;;;;5033311;28;20076;-78
2023/08/30 10:49:20;;;;;;;7.25;2.85;;;26.90;91.60;;;;;;5037837;28;20429;-77
2023/08/30 10:51:55;;;;;;;10.93;3.00;;;26.80;92.40;;;;;;5037448;28;20029;-77
2023/08/30 10:54:23;;;;;;;5.47;2.60;;;26.90;90.50;;;;;;5042443;28;20044;-86
2023/08/30 10:56:56;;;;;;;10.02;3.40;;;26.80;90.10;;;;;;5040985;28;20024;-77
2023/08/30 10:59:23;;;;;;;5.70;2.60;;;26.90;90.40;;;;;;5033825;28;20033;-78
2023/08/30 11:01:51;;;;;;;7.05;2.47;;;26.90;89.20;;;;;;5034203;28;20449;-78
2023/08/30 11:04:18;;;;;;;5.93;2.50;;;26.80;88.10;;;;;;5032709;28;20128;-81
2023/08/30 11:06:46;;;;;;;5.03;2.72;;;27.00;88.80;;;;;;5034628;28;20087;-78
2023/08/30 11:09:23;;;;;;;4.35;2.60;;;27.00;87.60;;;;;;5033582;28;20029;-80
2023/08/30 11:11:50;;;;;;;5.72;2.63;;;27.00;87.90;;;;;;5033428;28;20029;-81
2023/08/30 11:14:17;;;;;;;10.48;2.72;;;27.20;85.90;;;;;;5034461;28;20033;-78
2023/08/30 11:16:44;;;;;;;9.10;2.13;;;27.20;87.70;;;;;;5033717;28;20033;-78
2023/08/30 11:19:11;;;;;;;7.95;2.33;;;27.30;85.80;;;;;;5033159;28;20373;-77
2023/08/30 11:21:39;;;;;;;13.15;2.72;;;27.30;84.60;;;;;;5033525;28;20021;-78
2023/08/30 11:24:06;;;;;;;6.22;2.35;;;27.50;88.00;;;;;;5034903;28;20136;-78
2023/08/30 11:26:33;;;;;;;4.63;2.28;;;27.60;88.30;;;;;;5034887;28;20096;-78
2023/08/30 11:29:05;;;;;;;5.80;2.38;;;27.20;87.10;;;;;;5034776;28;20033;-78
2023/08/30 11:31:31;;;;;;;4.03;2.03;;;27.40;89.30;;;;;;5033744;28;20022;-78
2023/08/30 11:33:58;;;;;;;9.18;2.80;;;27.50;88.40;;;;;;5032673;28;20433;-78
2023/08/30 11:36:27;;;;;;;6.53;2.53;;;27.70;86.40;;;;;;5033536;28;20049;-79
2023/08/30 11:38:53;;;;;;;8.07;2.85;;;27.70;85.00;;;;;;5033498;28;20041;-83
2023/08/30 11:41:24;;;;;;;10.80;2.55;;;27.70;84.30;;;;;;5032511;28;20586;-77
2023/08/30 11:43:51;;;;;;;5.68;2.20;;;27.60;84.30;;;;;;5034163;28;20081;-77
2023/08/30 11:46:18;;;;;;;7.97;2.40;;;27.40;85.80;;;;;;5032654;28;20056;-84
2023/08/30 11:48:45;;;;;;;7.25;2.45;;;27.40;86.60;;;;;;5034065;28;20108;-77
2023/08/30 11:51:11;;;;;;;8.07;3.00;;;27.50;83.40;;;;;;5032426;28;20033;-78
2023/08/30 11:53:38;;;;;;;7.57;2.60;;;27.60;82.90;;;;;;5031642;28;20473;-80
2023/08/30 11:56:07;;;;;;;7.28;2.47;;;27.60;81.40;;;;;;5032293;28;20370;-79
2023/08/30 11:58:34;;;;;;;7.68;2.72;;;27.70;83.90;;;;;;5032255;28;20061;-84
2023/08/30 12:01:00;;;;;;;6.43;2.28;;;27.70;84.70;;;;;;5032162;28;20022;-84
2023/08/30 12:03:29;;;;;;;7.25;2.47;;;27.60;83.50;;;;;;5031915;28;20025;-82
2023/08/30 12:05:55;;;;;;;5.43;2.53;;;27.60;82.30;;;;;;5032160;28;20029;-80
2023/08/30 12:08:29;;;;;;;9.48;3.42;;;27.70;80.80;;;;;;5031718;28;20522;-84
2023/08/30 12:10:57;;;;;;;7.75;2.10;;;27.60;80.50;;;;;;5031930;28;20044;-83
2023/08/30 12:13:26;;;;;;;6.78;2.25;;;27.50;79.60;;;;;;5032028;28;20029;-79
2023/08/30 12:15:56;;;;;;;4.30;1.95;;;27.60;81.50;;;;;;5031142;28;20036;-84
2023/08/30 12:18:27;;;;;;;6.53;2.60;;;27.70;81.30;;;;;;5032158;28;20033;-79
2023/08/30 12:20:53;;;;;;;4.65;1.90;;;27.80;81.60;;;;;;5031963;28;20465;-78
2023/08/30 12:23:27;;;;;;;4.60;2.38;;;27.70;79.60;;;;;;5031773;28;20029;-79
2023/08/30 12:26:10;;;;;;;9.00;2.08;;;27.60;80.80;;;;;;5031869;28;20046;-78
2023/08/30 12:28:37;;;;;;;3.70;2.22;;;27.80;80.90;;;;;;5031576;28;20472;-81
2023/08/30 12:31:04;;;;;;;4.38;2.05;;;28.00;78.50;;;;;;5031813;28;20473;-78
2023/08/30 12:33:31;;;;;;;4.75;2.38;;;27.90;77.30;;;;;;5031495;28;20473;-80
2023/08/30 12:35:57;;;;;;;2.53;1.70;;;27.80;76.50;;;;;;5031951;28;20061;-81
2023/08/30 12:38:24;;;;;;;8.63;2.40;;;27.70;78.60;;;;;;5031883;28;20050;-81
2023/08/30 12:40:51;;;;;;;5.75;1.65;;;27.80;76.60;;;;;;5031370;28;20033;-79